sensor_id;sensor_type;location;lat;lon;timestamp;temperature;humidity
25914;DHT22;13718;50.922;5.346;2022-11-15T00:00:40;12.80;99.90
25914;DHT22;13718;50.922;5.346;2022-11-15T00:03:06;13.00;99.90
25914;DHT22;13718;50.922;5.346;2022-11-15T00:05:34;13.00;99.90
25914;DHT22;13718;50.922;5.346;2022-11-15T00:08:01;12.90;99.90
25914;DHT22;13718;50.922;5.346;2022-11-15T00:10:26;13.00;99.90
25914;DHT22;13718;50.922;5.346;2022-11-15T00:12:52;12.90;99.90
25914;DHT22;13718;50.922;5.346;2022-11-15T00:15:18;13.00;99.90
25914;DHT22;13718;50.922;5.346;2022-11-15T00:17:43;13.00;99.90
25914;DHT22;13718;50.922;5.346;2022-11-15T00:20:09;13.00;99.90
25914;DHT22;13718;50.922;5.346;2022-11-15T00:22:35;12.90;99.90
25914;DHT22;13718;50.922;5.346;2022-11-15T00:25:00;12.80;99.90
25914;DHT22;13718;50.922;5.346;2022-11-15T00:27:26;12.90;99.90
25914;DHT22;13718;50.922;5.346;2022-11-15T00:29:52;12.90;99.90
25914;DHT22;13718;50.922;5.346;2022-11-15T00:32:18;13.00;99.90
25914;DHT22;13718;50.922;5.346;2022-11-15T00:34:44;13.00;99.90
25914;DHT22;13718;50.922;5.346;2022-11-15T00:37:09;13.10;99.90
25914;DHT22;13718;50.922;5.346;2022-11-15T00:39:35;13.10;99.90
25914;DHT22;13718;50.922;5.346;2022-11-15T00:42:00;13.00;99.90
25914;DHT22;13718;50.922;5.346;2022-11-15T00:44:26;13.00;99.90
25914;DHT22;13718;50.922;5.346;2022-11-15T00:46:52;13.00;99.90
25914;DHT22;13718;50.922;5.346;2022-11-15T00:49:17;13.00;99.90
25914;DHT22;13718;50.922;5.346;2022-11-15T00:51:43;13.10;99.90
25914;DHT22;13718;50.922;5.346;2022-11-15T00:54:08;13.20;99.90
25914;DHT22;13718;50.922;5.346;2022-11-15T00:56:34;13.20;99.90
25914;DHT22;13718;50.922;5.346;2022-11-15T00:58:59;13.20;99.90
25914;DHT22;13718;50.922;5.346;2022-11-15T01:01:25;13.20;99.90
25914;DHT22;13718;50.922;5.346;2022-11-15T01:03:50;13.20;99.90
25914;DHT22;13718;50.922;5.346;2022-11-15T01:06:16;13.20;99.90
25914;DHT22;13718;50.922;5.346;2022-11-15T01:08:42;13.10;99.90
25914;DHT22;13718;50.922;5.346;2022-11-15T01:11:10;13.20;99.90
25914;DHT22;13718;50.922;5.346;2022-11-15T01:13:37;13.20;99.90
25914;DHT22;13718;50.922;5.346;2022-11-15T01:16:14;13.20;99.90
25914;DHT22;13718;50.922;5.346;2022-11-15T01:18:40;13.10;99.90
25914;DHT22;13718;50.922;5.346;2022-11-15T01:21:18;13.10;99.90
25914;DHT22;13718;50.922;5.346;2022-11-15T01:23:44;13.10;99.90
25914;DHT22;13718;50.922;5.346;2022-11-15T01:26:12;13.10;99.90
25914;DHT22;13718;50.922;5.346;2022-11-15T01:28:40;13.20;99.90
25914;DHT22;13718;50.922;5.346;2022-11-15T01:31:11;13.20;99.90
25914;DHT22;13718;50.922;5.346;2022-11-15T01:33:37;13.20;99.90
25914;DHT22;13718;50.922;5.346;2022-11-15T01:36:05;13.20;99.90
25914;DHT22;13718;50.922;5.346;2022-11-15T01:38:30;13.20;99.90
25914;DHT22;13718;50.922;5.346;2022-11-15T01:40:56;13.30;99.90
25914;DHT22;13718;50.922;5.346;2022-11-15T01:43:27;13.30;99.90
25914;DHT22;13718;50.922;5.346;2022-11-15T01:46:00;13.30;99.90
25914;DHT22;13718;50.922;5.346;2022-11-15T01:48:30;13.40;99.90
25914;DHT22;13718;50.922;5.346;2022-11-15T01:50:58;13.50;99.90
25914;DHT22;13718;50.922;5.346;2022-11-15T01:53:25;13.50;99.90
25914;DHT22;13718;50.922;5.346;2022-11-15T01:55:51;13.50;99.90
25914;DHT22;13718;50.922;5.346;2022-11-15T01:58:17;13.50;99.90
25914;DHT22;13718;50.922;5.346;2022-11-15T02:00:43;13.50;99.90
25914;DHT22;13718;50.922;5.346;2022-11-15T02:03:09;13.50;99.90
25914;DHT22;13718;50.922;5.346;2022-11-15T02:05:36;13.50;99.90
25914;DHT22;13718;50.922;5.346;2022-11-15T02:08:02;13.50;99.90
25914;DHT22;13718;50.922;5.346;2022-11-15T02:10:28;13.60;99.90
25914;DHT22;13718;50.922;5.346;2022-11-15T02:12:55;13.70;99.90
25914;DHT22;13718;50.922;5.346;2022-11-15T02:15:24;13.80;99.90
25914;DHT22;13718;50.922;5.346;2022-11-15T02:18:37;13.70;99.90
25914;DHT22;13718;50.922;5.346;2022-11-15T02:24:03;13.60;99.90
25914;DHT22;13718;50.922;5.346;2022-11-15T02:27:01;13.60;99.90
25914;DHT22;13718;50.922;5.346;2022-11-15T02:32:16;13.70;99.90
25914;DHT22;13718;50.922;5.346;2022-11-15T02:37:44;13.60;99.90
25914;DHT22;13718;50.922;5.346;2022-11-15T02:43:11;13.70;99.90
25914;DHT22;13718;50.922;5.346;2022-11-15T02:46:14;13.70;99.90
25914;DHT22;13718;50.922;5.346;2022-11-15T02:48:42;13.60;99.90
25914;DHT22;13718;50.922;5.346;2022-11-15T02:51:08;13.60;99.90
25914;DHT22;13718;50.922;5.346;2022-11-15T02:53:34;13.60;99.90
25914;DHT22;13718;50.922;5.346;2022-11-15T02:56:01;13.60;99.90
25914;DHT22;13718;50.922;5.346;2022-11-15T02:58:38;13.60;99.90
25914;DHT22;13718;50.922;5.346;2022-11-15T03:04:17;13.60;99.90
25914;DHT22;13718;50.922;5.346;2022-11-15T03:06:53;13.50;99.90
25914;DHT22;13718;50.922;5.346;2022-11-15T03:09:29;13.40;99.90
25914;DHT22;13718;50.922;5.346;2022-11-15T03:12:14;13.30;99.90
25914;DHT22;13718;50.922;5.346;2022-11-15T03:19:53;13.10;99.90
25914;DHT22;13718;50.922;5.346;2022-11-15T03:22:22;13.10;99.90
25914;DHT22;13718;50.922;5.346;2022-11-15T03:24:54;13.10;99.90
25914;DHT22;13718;50.922;5.346;2022-11-15T03:27:23;13.20;99.90
25914;DHT22;13718;50.922;5.346;2022-11-15T03:29:56;13.20;99.90
25914;DHT22;13718;50.922;5.346;2022-11-15T03:32:28;13.10;99.90
25914;DHT22;13718;50.922;5.346;2022-11-15T03:35:04;13.10;99.90
25914;DHT22;13718;50.922;5.346;2022-11-15T03:40:10;13.00;99.90
25914;DHT22;13718;50.922;5.346;2022-11-15T03:42:56;13.00;99.90
25914;DHT22;13718;50.922;5.346;2022-11-15T03:45:54;13.00;99.90
25914;DHT22;13718;50.922;5.346;2022-11-15T03:48:25;12.90;99.90
25914;DHT22;13718;50.922;5.346;2022-11-15T03:50:52;12.90;99.90
25914;DHT22;13718;50.922;5.346;2022-11-15T03:53:18;12.80;99.90
25914;DHT22;13718;50.922;5.346;2022-11-15T03:55:44;12.90;99.90
25914;DHT22;13718;50.922;5.346;2022-11-15T03:58:09;12.90;99.90
25914;DHT22;13718;50.922;5.346;2022-11-15T04:00:35;12.90;99.90
25914;DHT22;13718;50.922;5.346;2022-11-15T04:03:01;12.80;99.90
25914;DHT22;13718;50.922;5.346;2022-11-15T04:05:27;12.80;99.90
25914;DHT22;13718;50.922;5.346;2022-11-15T04:07:52;12.80;99.90
25914;DHT22;13718;50.922;5.346;2022-11-15T04:10:18;12.80;99.90
25914;DHT22;13718;50.922;5.346;2022-11-15T04:12:45;12.80;99.90
25914;DHT22;13718;50.922;5.346;2022-11-15T04:15:15;12.80;99.90
25914;DHT22;13718;50.922;5.346;2022-11-15T04:20:28;12.80;99.90
25914;DHT22;13718;50.922;5.346;2022-11-15T04:23:21;12.70;99.90
25914;DHT22;13718;50.922;5.346;2022-11-15T04:26:17;12.80;99.90
25914;DHT22;13718;50.922;5.346;2022-11-15T04:28:44;12.80;99.90
25914;DHT22;13718;50.922;5.346;2022-11-15T04:31:28;12.70;99.90
25914;DHT22;13718;50.922;5.346;2022-11-15T04:33:53;12.70;99.90
25914;DHT22;13718;50.922;5.346;2022-11-15T04:36:20;12.80;99.90
25914;DHT22;13718;50.922;5.346;2022-11-15T04:39:04;12.90;99.90
25914;DHT22;13718;50.922;5.346;2022-11-15T04:41:30;12.80;99.90
25914;DHT22;13718;50.922;5.346;2022-11-15T04:43:55;12.80;99.90
25914;DHT22;13718;50.922;5.346;2022-11-15T04:46:22;12.80;99.90
25914;DHT22;13718;50.922;5.346;2022-11-15T04:48:47;12.90;99.90
25914;DHT22;13718;50.922;5.346;2022-11-15T04:51:13;12.90;99.90
25914;DHT22;13718;50.922;5.346;2022-11-15T04:53:39;12.90;99.90
25914;DHT22;13718;50.922;5.346;2022-11-15T04:56:04;13.00;99.90
25914;DHT22;13718;50.922;5.346;2022-11-15T04:58:30;12.90;99.90
25914;DHT22;13718;50.922;5.346;2022-11-15T05:00:56;12.90;99.90
25914;DHT22;13718;50.922;5.346;2022-11-15T05:03:21;13.20;99.90
25914;DHT22;13718;50.922;5.346;2022-11-15T05:06:06;13.00;99.90
25914;DHT22;13718;50.922;5.346;2022-11-15T05:08:32;12.80;99.90
25914;DHT22;13718;50.922;5.346;2022-11-15T05:10:57;12.60;99.90
25914;DHT22;13718;50.922;5.346;2022-11-15T05:13:23;12.40;99.90
25914;DHT22;13718;50.922;5.346;2022-11-15T05:15:48;12.30;99.90
25914;DHT22;13718;50.922;5.346;2022-11-15T05:18:14;12.30;99.90
25914;DHT22;13718;50.922;5.346;2022-11-15T05:20:40;12.30;99.90
25914;DHT22;13718;50.922;5.346;2022-11-15T05:23:05;12.20;99.90
25914;DHT22;13718;50.922;5.346;2022-11-15T05:25:31;12.30;99.90
25914;DHT22;13718;50.922;5.346;2022-11-15T05:27:57;12.40;99.90
25914;DHT22;13718;50.922;5.346;2022-11-15T05:30:22;12.50;99.90
25914;DHT22;13718;50.922;5.346;2022-11-15T05:32:48;12.40;99.90
25914;DHT22;13718;50.922;5.346;2022-11-15T05:35:45;12.30;99.90
25914;DHT22;13718;50.922;5.346;2022-11-15T05:38:12;12.10;99.90
25914;DHT22;13718;50.922;5.346;2022-11-15T05:40:37;11.90;99.90
25914;DHT22;13718;50.922;5.346;2022-11-15T05:43:04;11.80;99.90
25914;DHT22;13718;50.922;5.346;2022-11-15T05:45:31;11.80;99.90
25914;DHT22;13718;50.922;5.346;2022-11-15T05:48:00;11.80;99.90
25914;DHT22;13718;50.922;5.346;2022-11-15T05:50:27;11.80;99.90
25914;DHT22;13718;50.922;5.346;2022-11-15T05:52:54;11.80;99.90
25914;DHT22;13718;50.922;5.346;2022-11-15T05:55:20;11.80;99.90
25914;DHT22;13718;50.922;5.346;2022-11-15T05:57:45;11.70;99.90
25914;DHT22;13718;50.922;5.346;2022-11-15T06:00:11;11.70;99.90
25914;DHT22;13718;50.922;5.346;2022-11-15T06:02:37;11.70;99.90
25914;DHT22;13718;50.922;5.346;2022-11-15T06:05:03;11.80;99.90
25914;DHT22;13718;50.922;5.346;2022-11-15T06:07:29;11.80;99.90
25914;DHT22;13718;50.922;5.346;2022-11-15T06:09:55;11.80;99.90
25914;DHT22;13718;50.922;5.346;2022-11-15T06:12:20;11.80;99.90
25914;DHT22;13718;50.922;5.346;2022-11-15T06:14:46;11.90;99.90
25914;DHT22;13718;50.922;5.346;2022-11-15T06:17:11;11.80;99.90
25914;DHT22;13718;50.922;5.346;2022-11-15T06:19:37;11.80;99.90
25914;DHT22;13718;50.922;5.346;2022-11-15T06:22:02;11.90;99.90
25914;DHT22;13718;50.922;5.346;2022-11-15T06:24:28;11.80;99.90
25914;DHT22;13718;50.922;5.346;2022-11-15T06:26:54;11.80;99.90
25914;DHT22;13718;50.922;5.346;2022-11-15T06:29:19;11.70;99.90
25914;DHT22;13718;50.922;5.346;2022-11-15T06:31:45;11.70;99.90
25914;DHT22;13718;50.922;5.346;2022-11-15T06:34:10;11.70;99.90
25914;DHT22;13718;50.922;5.346;2022-11-15T06:36:36;11.70;99.90
25914;DHT22;13718;50.922;5.346;2022-11-15T06:39:05;11.70;99.90
25914;DHT22;13718;50.922;5.346;2022-11-15T06:41:34;11.70;99.90
25914;DHT22;13718;50.922;5.346;2022-11-15T06:44:00;11.70;99.90
25914;DHT22;13718;50.922;5.346;2022-11-15T06:46:25;11.60;99.90
25914;DHT22;13718;50.922;5.346;2022-11-15T06:48:52;11.60;99.90
25914;DHT22;13718;50.922;5.346;2022-11-15T06:51:18;11.50;99.90
25914;DHT22;13718;50.922;5.346;2022-11-15T06:53:43;11.40;99.90
25914;DHT22;13718;50.922;5.346;2022-11-15T06:56:09;11.30;99.90
25914;DHT22;13718;50.922;5.346;2022-11-15T06:58:35;11.30;99.90
25914;DHT22;13718;50.922;5.346;2022-11-15T07:01:03;11.30;99.90
25914;DHT22;13718;50.922;5.346;2022-11-15T07:03:29;11.30;99.90
25914;DHT22;13718;50.922;5.346;2022-11-15T07:05:56;11.30;99.90
25914;DHT22;13718;50.922;5.346;2022-11-15T07:08:23;11.40;99.90
25914;DHT22;13718;50.922;5.346;2022-11-15T07:10:49;11.30;99.90
25914;DHT22;13718;50.922;5.346;2022-11-15T07:13:14;11.40;99.90
25914;DHT22;13718;50.922;5.346;2022-11-15T07:15:40;11.40;99.90
25914;DHT22;13718;50.922;5.346;2022-11-15T07:18:06;11.30;99.90
25914;DHT22;13718;50.922;5.346;2022-11-15T07:20:31;11.40;99.90
25914;DHT22;13718;50.922;5.346;2022-11-15T07:23:01;11.30;99.90
25914;DHT22;13718;50.922;5.346;2022-11-15T07:25:27;11.40;99.90
25914;DHT22;13718;50.922;5.346;2022-11-15T07:27:57;11.50;99.90
25914;DHT22;13718;50.922;5.346;2022-11-15T07:30:23;11.50;99.90
25914;DHT22;13718;50.922;5.346;2022-11-15T07:32:56;11.50;99.90
25914;DHT22;13718;50.922;5.346;2022-11-15T07:35:22;11.50;99.90
25914;DHT22;13718;50.922;5.346;2022-11-15T07:38:01;11.50;99.90
25914;DHT22;13718;50.922;5.346;2022-11-15T07:40:28;11.50;99.90
25914;DHT22;13718;50.922;5.346;2022-11-15T07:43:08;11.50;99.90
25914;DHT22;13718;50.922;5.346;2022-11-15T07:45:40;11.50;99.90
25914;DHT22;13718;50.922;5.346;2022-11-15T07:48:06;11.60;99.90
25914;DHT22;13718;50.922;5.346;2022-11-15T07:50:31;11.70;99.90
25914;DHT22;13718;50.922;5.346;2022-11-15T07:52:59;11.70;99.90
25914;DHT22;13718;50.922;5.346;2022-11-15T07:55:26;11.80;99.90
25914;DHT22;13718;50.922;5.346;2022-11-15T07:57:52;11.90;99.90
25914;DHT22;13718;50.922;5.346;2022-11-15T08:00:19;12.00;99.90
25914;DHT22;13718;50.922;5.346;2022-11-15T08:02:45;11.90;99.90
25914;DHT22;13718;50.922;5.346;2022-11-15T08:05:10;11.80;99.90
25914;DHT22;13718;50.922;5.346;2022-11-15T08:07:36;11.80;99.90
25914;DHT22;13718;50.922;5.346;2022-11-15T08:10:04;11.70;99.90
25914;DHT22;13718;50.922;5.346;2022-11-15T08:12:31;11.80;99.90
25914;DHT22;13718;50.922;5.346;2022-11-15T08:14:57;11.90;99.90
25914;DHT22;13718;50.922;5.346;2022-11-15T08:17:24;12.00;99.90
25914;DHT22;13718;50.922;5.346;2022-11-15T08:19:49;12.10;99.90
25914;DHT22;13718;50.922;5.346;2022-11-15T08:22:15;12.00;99.90
25914;DHT22;13718;50.922;5.346;2022-11-15T08:24:40;11.80;99.90
25914;DHT22;13718;50.922;5.346;2022-11-15T08:27:06;11.80;99.90
25914;DHT22;13718;50.922;5.346;2022-11-15T08:29:43;11.70;99.90
25914;DHT22;13718;50.922;5.346;2022-11-15T08:32:10;11.70;99.90
25914;DHT22;13718;50.922;5.346;2022-11-15T08:34:39;11.70;99.90
25914;DHT22;13718;50.922;5.346;2022-11-15T08:37:05;11.70;99.90
25914;DHT22;13718;50.922;5.346;2022-11-15T08:39:30;11.80;99.90
25914;DHT22;13718;50.922;5.346;2022-11-15T08:41:56;11.90;99.90
25914;DHT22;13718;50.922;5.346;2022-11-15T08:44:22;11.90;99.90
25914;DHT22;13718;50.922;5.346;2022-11-15T08:46:49;11.80;99.90
25914;DHT22;13718;50.922;5.346;2022-11-15T08:49:15;11.60;99.90
25914;DHT22;13718;50.922;5.346;2022-11-15T08:51:41;11.70;99.90
25914;DHT22;13718;50.922;5.346;2022-11-15T08:54:06;11.70;99.90
25914;DHT22;13718;50.922;5.346;2022-11-15T08:56:32;11.70;99.90
25914;DHT22;13718;50.922;5.346;2022-11-15T08:58:58;11.60;99.90
25914;DHT22;13718;50.922;5.346;2022-11-15T09:01:23;11.50;99.90
25914;DHT22;13718;50.922;5.346;2022-11-15T09:03:49;11.60;99.90
25914;DHT22;13718;50.922;5.346;2022-11-15T09:06:15;11.60;99.90
25914;DHT22;13718;50.922;5.346;2022-11-15T09:08:41;11.60;99.90
25914;DHT22;13718;50.922;5.346;2022-11-15T09:11:08;11.60;99.90
25914;DHT22;13718;50.922;5.346;2022-11-15T09:13:34;11.60;99.90
25914;DHT22;13718;50.922;5.346;2022-11-15T09:16:03;11.50;99.90
25914;DHT22;13718;50.922;5.346;2022-11-15T09:18:29;11.60;99.90
25914;DHT22;13718;50.922;5.346;2022-11-15T09:20:56;11.50;99.90
25914;DHT22;13718;50.922;5.346;2022-11-15T09:23:22;11.50;99.90
25914;DHT22;13718;50.922;5.346;2022-11-15T09:25:48;11.60;99.90
25914;DHT22;13718;50.922;5.346;2022-11-15T09:28:13;11.60;99.90
25914;DHT22;13718;50.922;5.346;2022-11-15T09:30:39;11.60;99.90
25914;DHT22;13718;50.922;5.346;2022-11-15T09:33:09;11.60;99.90
25914;DHT22;13718;50.922;5.346;2022-11-15T09:35:35;11.70;99.90
25914;DHT22;13718;50.922;5.346;2022-11-15T09:38:01;11.70;99.90
25914;DHT22;13718;50.922;5.346;2022-11-15T09:40:27;11.80;99.90
25914;DHT22;13718;50.922;5.346;2022-11-15T09:43:22;11.80;99.90
25914;DHT22;13718;50.922;5.346;2022-11-15T09:48:54;11.70;99.90
25914;DHT22;13718;50.922;5.346;2022-11-15T09:51:34;11.70;99.90
25914;DHT22;13718;50.922;5.346;2022-11-15T09:54:11;11.80;99.90
25914;DHT22;13718;50.922;5.346;2022-11-15T09:56:42;11.90;99.90
25914;DHT22;13718;50.922;5.346;2022-11-15T09:59:22;12.00;99.90
25914;DHT22;13718;50.922;5.346;2022-11-15T10:02:23;12.20;99.90
25914;DHT22;13718;50.922;5.346;2022-11-15T10:04:54;12.30;99.90
25914;DHT22;13718;50.922;5.346;2022-11-15T10:12:57;12.70;99.90
25914;DHT22;13718;50.922;5.346;2022-11-15T10:15:24;12.90;99.90
25914;DHT22;13718;50.922;5.346;2022-11-15T10:20:48;13.00;99.90
25914;DHT22;13718;50.922;5.346;2022-11-15T10:23:17;13.10;99.90
25914;DHT22;13718;50.922;5.346;2022-11-15T10:25:43;13.20;99.90
25914;DHT22;13718;50.922;5.346;2022-11-15T10:28:25;13.30;99.90
25914;DHT22;13718;50.922;5.346;2022-11-15T10:30:54;13.30;99.90
25914;DHT22;13718;50.922;5.346;2022-11-15T10:43:44;13.40;99.90
25914;DHT22;13718;50.922;5.346;2022-11-15T10:46:21;13.40;99.90
25914;DHT22;13718;50.922;5.346;2022-11-15T10:48:47;13.30;99.90
25914;DHT22;13718;50.922;5.346;2022-11-15T10:51:27;13.40;99.90
25914;DHT22;13718;50.922;5.346;2022-11-15T10:53:59;13.60;99.90
25914;DHT22;13718;50.922;5.346;2022-11-15T10:56:26;13.80;99.90
25914;DHT22;13718;50.922;5.346;2022-11-15T10:58:58;13.90;99.90
25914;DHT22;13718;50.922;5.346;2022-11-15T11:01:28;14.00;99.90
25914;DHT22;13718;50.922;5.346;2022-11-15T11:04:04;14.10;99.90
25914;DHT22;13718;50.922;5.346;2022-11-15T11:06:45;14.20;99.90
25914;DHT22;13718;50.922;5.346;2022-11-15T11:09:30;14.20;99.90
25914;DHT22;13718;50.922;5.346;2022-11-15T11:11:57;14.20;99.90
25914;DHT22;13718;50.922;5.346;2022-11-15T11:17:01;14.40;99.90
25914;DHT22;13718;50.922;5.346;2022-11-15T11:22:05;14.50;99.90
25914;DHT22;13718;50.922;5.346;2022-11-15T11:35:43;14.70;99.90
25914;DHT22;13718;50.922;5.346;2022-11-15T11:39:14;14.70;99.90
25914;DHT22;13718;50.922;5.346;2022-11-15T11:49:26;14.90;99.90
25914;DHT22;13718;50.922;5.346;2022-11-15T11:52:00;15.00;99.90
25914;DHT22;13718;50.922;5.346;2022-11-15T11:54:45;14.90;99.90
25914;DHT22;13718;50.922;5.346;2022-11-15T12:00:03;14.80;99.90
25914;DHT22;13718;50.922;5.346;2022-11-15T12:02:37;14.70;99.90
25914;DHT22;13718;50.922;5.346;2022-11-15T12:05:12;14.70;99.90
25914;DHT22;13718;50.922;5.346;2022-11-15T12:07:39;14.70;99.90
25914;DHT22;13718;50.922;5.346;2022-11-15T12:10:25;14.70;99.90
25914;DHT22;13718;50.922;5.346;2022-11-15T12:13:16;14.70;99.90
25914;DHT22;13718;50.922;5.346;2022-11-15T12:15:53;14.80;99.90
25914;DHT22;13718;50.922;5.346;2022-11-15T12:18:22;14.90;99.90
25914;DHT22;13718;50.922;5.346;2022-11-15T12:20:57;15.00;99.90
25914;DHT22;13718;50.922;5.346;2022-11-15T12:23:27;15.10;99.90
25914;DHT22;13718;50.922;5.346;2022-11-15T12:26:08;15.10;99.90
25914;DHT22;13718;50.922;5.346;2022-11-15T12:28:54;15.10;99.90
25914;DHT22;13718;50.922;5.346;2022-11-15T12:31:39;15.30;99.90
25914;DHT22;13718;50.922;5.346;2022-11-15T12:36:49;15.30;99.90
25914;DHT22;13718;50.922;5.346;2022-11-15T12:39:15;15.40;99.90
25914;DHT22;13718;50.922;5.346;2022-11-15T12:41:43;15.30;99.90
25914;DHT22;13718;50.922;5.346;2022-11-15T12:59:52;16.00;99.90
25914;DHT22;13718;50.922;5.346;2022-11-15T13:02:44;16.00;99.90
25914;DHT22;13718;50.922;5.346;2022-11-15T13:10:35;16.00;99.90
25914;DHT22;13718;50.922;5.346;2022-11-15T13:13:02;16.10;99.90
25914;DHT22;13718;50.922;5.346;2022-11-15T13:15:34;16.20;99.90
25914;DHT22;13718;50.922;5.346;2022-11-15T13:18:31;16.20;99.90
25914;DHT22;13718;50.922;5.346;2022-11-15T13:20:58;16.20;99.90
25914;DHT22;13718;50.922;5.346;2022-11-15T13:23:24;16.10;99.90
25914;DHT22;13718;50.922;5.346;2022-11-15T13:26:10;16.10;99.90
25914;DHT22;13718;50.922;5.346;2022-11-15T13:28:42;16.00;99.90
25914;DHT22;13718;50.922;5.346;2022-11-15T13:31:28;15.90;99.90
25914;DHT22;13718;50.922;5.346;2022-11-15T13:34:28;15.90;99.90
25914;DHT22;13718;50.922;5.346;2022-11-15T13:36:54;15.90;99.90
25914;DHT22;13718;50.922;5.346;2022-11-15T13:39:29;15.90;99.90
25914;DHT22;13718;50.922;5.346;2022-11-15T13:41:56;16.10;99.90
25914;DHT22;13718;50.922;5.346;2022-11-15T13:44:24;16.10;99.90
25914;DHT22;13718;50.922;5.346;2022-11-15T13:47:06;16.10;99.90
25914;DHT22;13718;50.922;5.346;2022-11-15T13:49:33;16.10;99.90
25914;DHT22;13718;50.922;5.346;2022-11-15T13:52:01;16.20;99.90
25914;DHT22;13718;50.922;5.346;2022-11-15T13:57:48;16.30;99.90
25914;DHT22;13718;50.922;5.346;2022-11-15T14:02:51;16.30;99.90
25914;DHT22;13718;50.922;5.346;2022-11-15T14:05:23;16.40;99.90
25914;DHT22;13718;50.922;5.346;2022-11-15T14:07:56;16.30;99.90
25914;DHT22;13718;50.922;5.346;2022-11-15T14:10:28;16.30;99.90
25914;DHT22;13718;50.922;5.346;2022-11-15T14:12:55;16.30;99.90
25914;DHT22;13718;50.922;5.346;2022-11-15T14:15:37;16.20;99.90
25914;DHT22;13718;50.922;5.346;2022-11-15T14:18:03;16.10;99.90
25914;DHT22;13718;50.922;5.346;2022-11-15T14:20:36;16.10;99.90
25914;DHT22;13718;50.922;5.346;2022-11-15T14:23:23;16.00;99.90
25914;DHT22;13718;50.922;5.346;2022-11-15T14:25:56;15.90;99.90
25914;DHT22;13718;50.922;5.346;2022-11-15T14:30:49;15.90;99.90
25914;DHT22;13718;50.922;5.346;2022-11-15T14:33:34;15.80;99.90
25914;DHT22;13718;50.922;5.346;2022-11-15T14:36:15;15.80;99.90
25914;DHT22;13718;50.922;5.346;2022-11-15T14:38:41;15.90;99.90
25914;DHT22;13718;50.922;5.346;2022-11-15T14:43:43;15.70;99.90
25914;DHT22;13718;50.922;5.346;2022-11-15T14:46:08;15.70;99.90
25914;DHT22;13718;50.922;5.346;2022-11-15T14:48:34;15.60;99.90
25914;DHT22;13718;50.922;5.346;2022-11-15T14:51:00;15.60;99.90
25914;DHT22;13718;50.922;5.346;2022-11-15T14:53:25;15.60;99.90
25914;DHT22;13718;50.922;5.346;2022-11-15T14:55:51;15.70;99.90
25914;DHT22;13718;50.922;5.346;2022-11-15T14:58:16;15.60;99.90
25914;DHT22;13718;50.922;5.346;2022-11-15T15:00:42;15.60;99.90
25914;DHT22;13718;50.922;5.346;2022-11-15T15:03:08;15.60;99.90
25914;DHT22;13718;50.922;5.346;2022-11-15T15:08:01;15.60;99.90
25914;DHT22;13718;50.922;5.346;2022-11-15T15:10:45;15.50;99.90
25914;DHT22;13718;50.922;5.346;2022-11-15T15:13:20;15.50;99.90
25914;DHT22;13718;50.922;5.346;2022-11-15T15:15:47;15.50;99.90
25914;DHT22;13718;50.922;5.346;2022-11-15T15:18:13;15.40;99.90
25914;DHT22;13718;50.922;5.346;2022-11-15T15:20:39;15.40;99.90
25914;DHT22;13718;50.922;5.346;2022-11-15T15:23:18;15.50;99.90
25914;DHT22;13718;50.922;5.346;2022-11-15T15:25:44;15.30;99.90
25914;DHT22;13718;50.922;5.346;2022-11-15T15:28:12;15.20;99.90
25914;DHT22;13718;50.922;5.346;2022-11-15T15:30:38;15.00;99.90
25914;DHT22;13718;50.922;5.346;2022-11-15T15:33:03;15.00;99.90
25914;DHT22;13718;50.922;5.346;2022-11-15T15:35:31;14.80;99.90
25914;DHT22;13718;50.922;5.346;2022-11-15T15:37:57;14.60;99.90
25914;DHT22;13718;50.922;5.346;2022-11-15T15:40:24;14.50;99.90
25914;DHT22;13718;50.922;5.346;2022-11-15T15:42:50;14.40;99.90
25914;DHT22;13718;50.922;5.346;2022-11-15T15:45:17;14.30;99.90
25914;DHT22;13718;50.922;5.346;2022-11-15T15:47:43;14.20;99.90
25914;DHT22;13718;50.922;5.346;2022-11-15T15:50:28;14.10;99.90
25914;DHT22;13718;50.922;5.346;2022-11-15T15:52:56;13.90;99.90
25914;DHT22;13718;50.922;5.346;2022-11-15T15:55:22;14.00;99.90
25914;DHT22;13718;50.922;5.346;2022-11-15T15:57:48;13.80;99.90
25914;DHT22;13718;50.922;5.346;2022-11-15T16:00:14;13.70;99.90
25914;DHT22;13718;50.922;5.346;2022-11-15T16:02:41;13.50;99.90
25914;DHT22;13718;50.922;5.346;2022-11-15T16:05:07;13.60;99.90
25914;DHT22;13718;50.922;5.346;2022-11-15T16:07:33;13.60;99.90
25914;DHT22;13718;50.922;5.346;2022-11-15T16:09:59;13.50;99.90
25914;DHT22;13718;50.922;5.346;2022-11-15T16:12:32;13.50;99.90
25914;DHT22;13718;50.922;5.346;2022-11-15T16:14:59;13.40;99.90
25914;DHT22;13718;50.922;5.346;2022-11-15T16:17:28;13.30;99.90
25914;DHT22;13718;50.922;5.346;2022-11-15T16:19:55;13.30;99.90
25914;DHT22;13718;50.922;5.346;2022-11-15T16:22:21;13.30;99.90
25914;DHT22;13718;50.922;5.346;2022-11-15T16:24:47;13.30;99.90
25914;DHT22;13718;50.922;5.346;2022-11-15T16:27:18;13.20;99.90
25914;DHT22;13718;50.922;5.346;2022-11-15T16:29:45;13.30;99.90
25914;DHT22;13718;50.922;5.346;2022-11-15T16:32:11;13.20;99.90
25914;DHT22;13718;50.922;5.346;2022-11-15T16:34:36;13.20;99.90
25914;DHT22;13718;50.922;5.346;2022-11-15T16:37:03;13.30;99.90
25914;DHT22;13718;50.922;5.346;2022-11-15T16:39:29;13.30;99.90
25914;DHT22;13718;50.922;5.346;2022-11-15T16:41:58;13.30;99.90
25914;DHT22;13718;50.922;5.346;2022-11-15T16:44:24;13.30;99.90
25914;DHT22;13718;50.922;5.346;2022-11-15T16:46:50;13.20;99.90
25914;DHT22;13718;50.922;5.346;2022-11-15T16:49:18;13.20;99.90
25914;DHT22;13718;50.922;5.346;2022-11-15T16:51:48;13.20;99.90
25914;DHT22;13718;50.922;5.346;2022-11-15T16:54:14;13.10;99.90
25914;DHT22;13718;50.922;5.346;2022-11-15T16:56:40;13.00;99.90
25914;DHT22;13718;50.922;5.346;2022-11-15T16:59:08;13.00;99.90
25914;DHT22;13718;50.922;5.346;2022-11-15T17:01:35;13.00;99.90
25914;DHT22;13718;50.922;5.346;2022-11-15T17:04:03;13.10;99.90
25914;DHT22;13718;50.922;5.346;2022-11-15T17:06:38;13.10;99.90
25914;DHT22;13718;50.922;5.346;2022-11-15T17:09:05;13.00;99.90
25914;DHT22;13718;50.922;5.346;2022-11-15T17:11:30;12.90;99.90
25914;DHT22;13718;50.922;5.346;2022-11-15T17:13:57;12.90;99.90
25914;DHT22;13718;50.922;5.346;2022-11-15T17:16:23;12.90;99.90
25914;DHT22;13718;50.922;5.346;2022-11-15T17:18:52;13.00;99.90
25914;DHT22;13718;50.922;5.346;2022-11-15T17:21:19;13.00;99.90
25914;DHT22;13718;50.922;5.346;2022-11-15T17:23:45;13.00;99.90
25914;DHT22;13718;50.922;5.346;2022-11-15T17:26:13;13.00;99.90
25914;DHT22;13718;50.922;5.346;2022-11-15T17:28:39;13.00;99.90
25914;DHT22;13718;50.922;5.346;2022-11-15T17:31:07;13.10;99.90
25914;DHT22;13718;50.922;5.346;2022-11-15T17:33:33;13.00;99.90
25914;DHT22;13718;50.922;5.346;2022-11-15T17:36:02;13.00;99.90